sensor_id;sensor_type;location;lat;lon;timestamp;temperature;humidity
17483;DHT22;8858;52.308;20.994;2022-10-26T00:01:49;13.00;99.90
17483;DHT22;8858;52.308;20.994;2022-10-26T00:04:19;13.00;99.90
17483;DHT22;8858;52.308;20.994;2022-10-26T00:06:49;13.00;99.90
17483;DHT22;8858;52.308;20.994;2022-10-26T00:09:17;13.00;99.90
17483;DHT22;8858;52.308;20.994;2022-10-26T00:11:45;13.00;99.90
17483;DHT22;8858;52.308;20.994;2022-10-26T00:14:14;13.00;99.90
17483;DHT22;8858;52.308;20.994;2022-10-26T00:16:43;13.00;99.90
17483;DHT22;8858;52.308;20.994;2022-10-26T00:19:14;13.00;99.90
17483;DHT22;8858;52.308;20.994;2022-10-26T00:21:42;13.00;99.90
17483;DHT22;8858;52.308;20.994;2022-10-26T00:24:12;13.00;99.90
17483;DHT22;8858;52.308;20.994;2022-10-26T00:26:41;13.00;99.90
17483;DHT22;8858;52.308;20.994;2022-10-26T00:29:10;12.90;99.90
17483;DHT22;8858;52.308;20.994;2022-10-26T00:31:44;12.90;99.90
17483;DHT22;8858;52.308;20.994;2022-10-26T00:34:17;12.90;99.90
17483;DHT22;8858;52.308;20.994;2022-10-26T00:36:49;12.90;99.90
17483;DHT22;8858;52.308;20.994;2022-10-26T00:39:19;12.90;99.90
17483;DHT22;8858;52.308;20.994;2022-10-26T00:41:49;12.90;99.90
17483;DHT22;8858;52.308;20.994;2022-10-26T00:47:36;13.00;99.90
17483;DHT22;8858;52.308;20.994;2022-10-26T00:50:08;13.00;99.90
17483;DHT22;8858;52.308;20.994;2022-10-26T00:52:38;13.00;99.90
17483;DHT22;8858;52.308;20.994;2022-10-26T00:55:12;13.00;99.90
17483;DHT22;8858;52.308;20.994;2022-10-26T00:57:40;13.00;99.90
17483;DHT22;8858;52.308;20.994;2022-10-26T01:00:16;13.00;99.90
17483;DHT22;8858;52.308;20.994;2022-10-26T01:02:45;13.00;99.90
17483;DHT22;8858;52.308;20.994;2022-10-26T01:05:18;13.00;99.90
17483;DHT22;8858;52.308;20.994;2022-10-26T01:07:47;13.00;99.90
17483;DHT22;8858;52.308;20.994;2022-10-26T01:10:19;13.00;99.90
17483;DHT22;8858;52.308;20.994;2022-10-26T01:12:48;13.00;99.90
17483;DHT22;8858;52.308;20.994;2022-10-26T01:15:18;13.10;99.90
17483;DHT22;8858;52.308;20.994;2022-10-26T01:17:53;13.00;99.90
17483;DHT22;8858;52.308;20.994;2022-10-26T01:20:49;13.00;99.90
17483;DHT22;8858;52.308;20.994;2022-10-26T01:23:26;13.00;99.90
17483;DHT22;8858;52.308;20.994;2022-10-26T01:26:23;13.00;99.90
17483;DHT22;8858;52.308;20.994;2022-10-26T01:32:07;13.10;99.90
17483;DHT22;8858;52.308;20.994;2022-10-26T01:34:43;13.10;99.90
17483;DHT22;8858;52.308;20.994;2022-10-26T01:37:18;13.00;99.90
17483;DHT22;8858;52.308;20.994;2022-10-26T01:39:55;13.10;99.90
17483;DHT22;8858;52.308;20.994;2022-10-26T01:42:27;13.10;99.90
17483;DHT22;8858;52.308;20.994;2022-10-26T01:45:05;13.10;99.90
17483;DHT22;8858;52.308;20.994;2022-10-26T01:47:36;13.10;99.90
17483;DHT22;8858;52.308;20.994;2022-10-26T01:50:09;13.10;99.90
17483;DHT22;8858;52.308;20.994;2022-10-26T01:52:39;13.10;99.90
17483;DHT22;8858;52.308;20.994;2022-10-26T01:55:43;13.10;99.90
17483;DHT22;8858;52.308;20.994;2022-10-26T01:58:38;13.10;99.90
17483;DHT22;8858;52.308;20.994;2022-10-26T02:01:19;13.10;99.90
17483;DHT22;8858;52.308;20.994;2022-10-26T02:04:00;13.00;99.90
17483;DHT22;8858;52.308;20.994;2022-10-26T02:06:35;13.00;99.90
17483;DHT22;8858;52.308;20.994;2022-10-26T02:09:17;13.00;99.90
17483;DHT22;8858;52.308;20.994;2022-10-26T02:11:49;13.00;99.90
17483;DHT22;8858;52.308;20.994;2022-10-26T02:14:26;13.00;99.90
17483;DHT22;8858;52.308;20.994;2022-10-26T02:17:06;13.00;99.90
17483;DHT22;8858;52.308;20.994;2022-10-26T02:19:41;13.00;99.90
17483;DHT22;8858;52.308;20.994;2022-10-26T02:22:14;13.00;99.90
17483;DHT22;8858;52.308;20.994;2022-10-26T02:24:46;13.00;99.90
17483;DHT22;8858;52.308;20.994;2022-10-26T02:27:20;13.00;99.90
17483;DHT22;8858;52.308;20.994;2022-10-26T02:29:50;13.00;99.90
17483;DHT22;8858;52.308;20.994;2022-10-26T02:32:21;12.90;99.90
17483;DHT22;8858;52.308;20.994;2022-10-26T02:34:57;12.90;99.90
17483;DHT22;8858;52.308;20.994;2022-10-26T02:37:27;12.90;99.90
17483;DHT22;8858;52.308;20.994;2022-10-26T02:40:03;12.90;99.90
17483;DHT22;8858;52.308;20.994;2022-10-26T02:42:33;12.80;99.90
17483;DHT22;8858;52.308;20.994;2022-10-26T02:45:06;12.90;99.90
17483;DHT22;8858;52.308;20.994;2022-10-26T02:47:37;12.90;99.90
17483;DHT22;8858;52.308;20.994;2022-10-26T02:50:07;12.90;99.90
17483;DHT22;8858;52.308;20.994;2022-10-26T02:52:42;12.90;99.90
17483;DHT22;8858;52.308;20.994;2022-10-26T02:55:17;12.90;99.90
17483;DHT22;8858;52.308;20.994;2022-10-26T02:57:50;12.90;99.90
17483;DHT22;8858;52.308;20.994;2022-10-26T03:00:21;12.90;99.90
17483;DHT22;8858;52.308;20.994;2022-10-26T03:02:52;12.90;99.90
17483;DHT22;8858;52.308;20.994;2022-10-26T03:05:26;12.90;99.90
17483;DHT22;8858;52.308;20.994;2022-10-26T03:07:55;12.90;99.90
17483;DHT22;8858;52.308;20.994;2022-10-26T03:10:24;12.90;99.90
17483;DHT22;8858;52.308;20.994;2022-10-26T03:12:54;12.90;99.90
17483;DHT22;8858;52.308;20.994;2022-10-26T03:15:22;12.90;99.90
17483;DHT22;8858;52.308;20.994;2022-10-26T03:17:54;12.90;99.90
17483;DHT22;8858;52.308;20.994;2022-10-26T03:20:24;12.90;99.90
17483;DHT22;8858;52.308;20.994;2022-10-26T03:22:53;12.90;99.90
17483;DHT22;8858;52.308;20.994;2022-10-26T03:25:28;12.90;99.90
17483;DHT22;8858;52.308;20.994;2022-10-26T03:27:57;12.80;99.90
17483;DHT22;8858;52.308;20.994;2022-10-26T03:30:30;12.80;99.90
17483;DHT22;8858;52.308;20.994;2022-10-26T03:32:59;12.80;99.90
17483;DHT22;8858;52.308;20.994;2022-10-26T03:35:28;12.80;99.90
17483;DHT22;8858;52.308;20.994;2022-10-26T03:37:58;12.80;99.90
17483;DHT22;8858;52.308;20.994;2022-10-26T03:40:26;12.80;99.90
17483;DHT22;8858;52.308;20.994;2022-10-26T03:42:57;12.80;99.90
17483;DHT22;8858;52.308;20.994;2022-10-26T03:45:26;12.80;99.90
17483;DHT22;8858;52.308;20.994;2022-10-26T03:47:55;12.80;99.90
17483;DHT22;8858;52.308;20.994;2022-10-26T03:50:27;12.80;99.90
17483;DHT22;8858;52.308;20.994;2022-10-26T03:52:56;12.80;99.90
17483;DHT22;8858;52.308;20.994;2022-10-26T03:55:27;12.80;99.90
17483;DHT22;8858;52.308;20.994;2022-10-26T03:57:55;12.80;99.90
17483;DHT22;8858;52.308;20.994;2022-10-26T04:00:24;12.80;99.90
17483;DHT22;8858;52.308;20.994;2022-10-26T04:02:57;12.80;99.90
17483;DHT22;8858;52.308;20.994;2022-10-26T04:05:28;12.90;99.90
17483;DHT22;8858;52.308;20.994;2022-10-26T04:08:01;12.90;99.90
17483;DHT22;8858;52.308;20.994;2022-10-26T04:10:30;12.90;99.90
17483;DHT22;8858;52.308;20.994;2022-10-26T04:13:02;12.90;99.90
17483;DHT22;8858;52.308;20.994;2022-10-26T04:15:31;12.90;99.90
17483;DHT22;8858;52.308;20.994;2022-10-26T04:18:00;12.90;99.90
17483;DHT22;8858;52.308;20.994;2022-10-26T04:20:32;12.90;99.90
17483;DHT22;8858;52.308;20.994;2022-10-26T04:23:04;12.90;99.90
17483;DHT22;8858;52.308;20.994;2022-10-26T04:25:36;12.90;99.90
17483;DHT22;8858;52.308;20.994;2022-10-26T04:28:05;12.80;99.90
17483;DHT22;8858;52.308;20.994;2022-10-26T04:30:38;12.80;99.90
17483;DHT22;8858;52.308;20.994;2022-10-26T04:33:06;12.80;99.90
17483;DHT22;8858;52.308;20.994;2022-10-26T04:35:37;12.80;99.90
17483;DHT22;8858;52.308;20.994;2022-10-26T04:38:06;12.80;99.90
17483;DHT22;8858;52.308;20.994;2022-10-26T04:40:34;12.80;99.90
17483;DHT22;8858;52.308;20.994;2022-10-26T04:43:05;12.80;99.90
17483;DHT22;8858;52.308;20.994;2022-10-26T04:45:34;12.80;99.90
17483;DHT22;8858;52.308;20.994;2022-10-26T04:48:04;12.80;99.90
17483;DHT22;8858;52.308;20.994;2022-10-26T04:50:34;12.80;99.90
17483;DHT22;8858;52.308;20.994;2022-10-26T04:53:04;12.80;99.90
17483;DHT22;8858;52.308;20.994;2022-10-26T04:55:36;12.80;99.90
17483;DHT22;8858;52.308;20.994;2022-10-26T04:58:05;12.80;99.90
17483;DHT22;8858;52.308;20.994;2022-10-26T05:00:34;12.70;99.90
17483;DHT22;8858;52.308;20.994;2022-10-26T05:03:04;12.70;99.90
17483;DHT22;8858;52.308;20.994;2022-10-26T05:05:34;12.70;99.90
17483;DHT22;8858;52.308;20.994;2022-10-26T05:08:04;12.70;99.90
17483;DHT22;8858;52.308;20.994;2022-10-26T05:10:32;12.70;99.90
17483;DHT22;8858;52.308;20.994;2022-10-26T05:13:01;12.70;99.90
17483;DHT22;8858;52.308;20.994;2022-10-26T05:15:30;12.70;99.90
17483;DHT22;8858;52.308;20.994;2022-10-26T05:18:01;12.70;99.90
17483;DHT22;8858;52.308;20.994;2022-10-26T05:20:37;12.70;99.90
17483;DHT22;8858;52.308;20.994;2022-10-26T05:23:10;12.70;99.90
17483;DHT22;8858;52.308;20.994;2022-10-26T05:25:45;12.70;99.90
17483;DHT22;8858;52.308;20.994;2022-10-26T05:28:15;12.70;99.90
17483;DHT22;8858;52.308;20.994;2022-10-26T05:30:47;12.70;99.90
17483;DHT22;8858;52.308;20.994;2022-10-26T05:33:15;12.70;99.90
17483;DHT22;8858;52.308;20.994;2022-10-26T05:35:43;12.70;99.90
17483;DHT22;8858;52.308;20.994;2022-10-26T05:38:14;12.70;99.90
17483;DHT22;8858;52.308;20.994;2022-10-26T05:40:47;12.70;99.90
17483;DHT22;8858;52.308;20.994;2022-10-26T05:43:16;12.70;99.90
17483;DHT22;8858;52.308;20.994;2022-10-26T05:45:46;12.70;99.90
17483;DHT22;8858;52.308;20.994;2022-10-26T05:48:15;12.80;99.90
17483;DHT22;8858;52.308;20.994;2022-10-26T05:50:43;12.70;99.90
17483;DHT22;8858;52.308;20.994;2022-10-26T05:53:13;12.80;99.90
17483;DHT22;8858;52.308;20.994;2022-10-26T05:55:48;12.80;99.90
17483;DHT22;8858;52.308;20.994;2022-10-26T05:58:17;12.80;99.90
17483;DHT22;8858;52.308;20.994;2022-10-26T06:01:01;12.80;99.90
17483;DHT22;8858;52.308;20.994;2022-10-26T06:03:41;12.70;99.90
17483;DHT22;8858;52.308;20.994;2022-10-26T06:06:13;12.70;99.90
17483;DHT22;8858;52.308;20.994;2022-10-26T06:08:43;12.70;99.90
17483;DHT22;8858;52.308;20.994;2022-10-26T06:11:14;12.70;99.90
17483;DHT22;8858;52.308;20.994;2022-10-26T06:13:44;12.70;99.90
17483;DHT22;8858;52.308;20.994;2022-10-26T06:16:27;12.70;99.90
17483;DHT22;8858;52.308;20.994;2022-10-26T06:19:05;12.70;99.90
17483;DHT22;8858;52.308;20.994;2022-10-26T06:21:49;12.80;99.90
17483;DHT22;8858;52.308;20.994;2022-10-26T06:24:32;12.80;99.90
17483;DHT22;8858;52.308;20.994;2022-10-26T06:27:10;12.80;99.90
17483;DHT22;8858;52.308;20.994;2022-10-26T06:29:55;12.80;99.90
17483;DHT22;8858;52.308;20.994;2022-10-26T06:32:28;12.80;99.90
17483;DHT22;8858;52.308;20.994;2022-10-26T06:35:06;12.80;99.90
17483;DHT22;8858;52.308;20.994;2022-10-26T06:37:38;12.90;99.90
17483;DHT22;8858;52.308;20.994;2022-10-26T06:40:11;13.00;99.90
17483;DHT22;8858;52.308;20.994;2022-10-26T06:42:46;13.10;99.90
17483;DHT22;8858;52.308;20.994;2022-10-26T06:45:16;13.10;99.90
17483;DHT22;8858;52.308;20.994;2022-10-26T06:48:13;13.00;99.90
17483;DHT22;8858;52.308;20.994;2022-10-26T06:51:10;13.10;99.90
17483;DHT22;8858;52.308;20.994;2022-10-26T06:53:51;13.20;99.90
17483;DHT22;8858;52.308;20.994;2022-10-26T06:56:25;13.20;99.90
17483;DHT22;8858;52.308;20.994;2022-10-26T06:58:55;13.20;99.90
17483;DHT22;8858;52.308;20.994;2022-10-26T07:01:32;13.10;99.90
17483;DHT22;8858;52.308;20.994;2022-10-26T07:04:01;13.20;99.90
17483;DHT22;8858;52.308;20.994;2022-10-26T07:06:29;13.30;99.90
17483;DHT22;8858;52.308;20.994;2022-10-26T07:09:04;13.40;99.90
17483;DHT22;8858;52.308;20.994;2022-10-26T07:11:33;13.30;99.90
17483;DHT22;8858;52.308;20.994;2022-10-26T07:14:01;13.30;99.90
17483;DHT22;8858;52.308;20.994;2022-10-26T07:16:31;13.20;99.90
17483;DHT22;8858;52.308;20.994;2022-10-26T07:18:59;13.20;99.90
17483;DHT22;8858;52.308;20.994;2022-10-26T07:21:29;13.20;99.90
17483;DHT22;8858;52.308;20.994;2022-10-26T07:23:57;13.20;99.90
17483;DHT22;8858;52.308;20.994;2022-10-26T07:26:26;13.20;99.90
17483;DHT22;8858;52.308;20.994;2022-10-26T07:28:59;13.10;99.90
17483;DHT22;8858;52.308;20.994;2022-10-26T07:31:28;13.10;99.90
17483;DHT22;8858;52.308;20.994;2022-10-26T07:33:56;13.10;99.90
17483;DHT22;8858;52.308;20.994;2022-10-26T07:36:28;13.10;99.90
17483;DHT22;8858;52.308;20.994;2022-10-26T07:38:56;13.10;99.90
17483;DHT22;8858;52.308;20.994;2022-10-26T07:41:29;13.10;99.90
17483;DHT22;8858;52.308;20.994;2022-10-26T07:43:58;13.10;99.90
17483;DHT22;8858;52.308;20.994;2022-10-26T07:46:30;13.00;99.90
17483;DHT22;8858;52.308;20.994;2022-10-26T07:48:58;13.00;99.90
17483;DHT22;8858;52.308;20.994;2022-10-26T07:51:27;13.00;99.90
17483;DHT22;8858;52.308;20.994;2022-10-26T07:53:56;13.10;99.90
17483;DHT22;8858;52.308;20.994;2022-10-26T07:56:24;13.10;99.90
17483;DHT22;8858;52.308;20.994;2022-10-26T07:58:54;13.10;99.90
17483;DHT22;8858;52.308;20.994;2022-10-26T08:01:24;13.00;99.90
17483;DHT22;8858;52.308;20.994;2022-10-26T08:03:53;13.00;99.90
17483;DHT22;8858;52.308;20.994;2022-10-26T08:06:24;13.10;99.90
17483;DHT22;8858;52.308;20.994;2022-10-26T08:08:52;13.10;99.90
17483;DHT22;8858;52.308;20.994;2022-10-26T08:11:22;13.30;99.90
17483;DHT22;8858;52.308;20.994;2022-10-26T08:13:51;13.30;99.90
17483;DHT22;8858;52.308;20.994;2022-10-26T08:16:19;13.30;99.90
17483;DHT22;8858;52.308;20.994;2022-10-26T08:18:51;13.40;99.90
17483;DHT22;8858;52.308;20.994;2022-10-26T08:21:19;13.20;99.90
17483;DHT22;8858;52.308;20.994;2022-10-26T08:24:06;13.10;99.90
17483;DHT22;8858;52.308;20.994;2022-10-26T08:26:34;13.20;99.90
17483;DHT22;8858;52.308;20.994;2022-10-26T08:29:06;13.20;99.90
17483;DHT22;8858;52.308;20.994;2022-10-26T08:31:34;13.10;99.90
17483;DHT22;8858;52.308;20.994;2022-10-26T08:34:03;13.20;99.90
17483;DHT22;8858;52.308;20.994;2022-10-26T08:36:33;13.20;99.90
17483;DHT22;8858;52.308;20.994;2022-10-26T08:39:01;13.20;99.90
17483;DHT22;8858;52.308;20.994;2022-10-26T08:41:36;13.20;99.90
17483;DHT22;8858;52.308;20.994;2022-10-26T08:44:14;13.20;99.90
17483;DHT22;8858;52.308;20.994;2022-10-26T08:46:47;13.10;99.90
17483;DHT22;8858;52.308;20.994;2022-10-26T08:49:22;13.10;99.90
17483;DHT22;8858;52.308;20.994;2022-10-26T08:51:55;13.10;99.90
17483;DHT22;8858;52.308;20.994;2022-10-26T08:54:32;13.00;99.90
17483;DHT22;8858;52.308;20.994;2022-10-26T08:57:09;12.90;99.90
17483;DHT22;8858;52.308;20.994;2022-10-26T08:59:45;12.80;99.90
17483;DHT22;8858;52.308;20.994;2022-10-26T09:02:16;12.80;99.90
17483;DHT22;8858;52.308;20.994;2022-10-26T09:04:46;12.80;99.90
17483;DHT22;8858;52.308;20.994;2022-10-26T09:07:30;12.70;99.90
17483;DHT22;8858;52.308;20.994;2022-10-26T09:10:12;12.80;99.90
17483;DHT22;8858;52.308;20.994;2022-10-26T09:12:50;12.70;99.90
17483;DHT22;8858;52.308;20.994;2022-10-26T09:15:30;12.50;99.90
17483;DHT22;8858;52.308;20.994;2022-10-26T09:18:07;12.40;99.90
17483;DHT22;8858;52.308;20.994;2022-10-26T09:20:53;12.30;99.90
17483;DHT22;8858;52.308;20.994;2022-10-26T09:23:36;12.40;99.90
17483;DHT22;8858;52.308;20.994;2022-10-26T09:26:13;12.40;99.90
17483;DHT22;8858;52.308;20.994;2022-10-26T09:28:43;12.40;99.90
17483;DHT22;8858;52.308;20.994;2022-10-26T09:31:15;12.30;99.90
17483;DHT22;8858;52.308;20.994;2022-10-26T09:33:44;12.40;99.90
17483;DHT22;8858;52.308;20.994;2022-10-26T09:36:18;12.50;99.90
17483;DHT22;8858;52.308;20.994;2022-10-26T09:38:52;12.50;99.90
17483;DHT22;8858;52.308;20.994;2022-10-26T09:41:26;12.60;99.90
17483;DHT22;8858;52.308;20.994;2022-10-26T09:44:04;12.60;99.90
17483;DHT22;8858;52.308;20.994;2022-10-26T09:46:42;12.60;99.90
17483;DHT22;8858;52.308;20.994;2022-10-26T09:49:15;12.60;99.90
17483;DHT22;8858;52.308;20.994;2022-10-26T09:51:47;12.70;99.90
17483;DHT22;8858;52.308;20.994;2022-10-26T09:54:18;12.70;99.90
17483;DHT22;8858;52.308;20.994;2022-10-26T09:56:51;12.70;99.90
17483;DHT22;8858;52.308;20.994;2022-10-26T09:59:25;12.70;99.90
17483;DHT22;8858;52.308;20.994;2022-10-26T10:01:54;12.70;99.90
17483;DHT22;8858;52.308;20.994;2022-10-26T10:04:23;12.70;99.90
17483;DHT22;8858;52.308;20.994;2022-10-26T10:07:11;12.70;99.90
17483;DHT22;8858;52.308;20.994;2022-10-26T10:09:40;12.70;99.90
17483;DHT22;8858;52.308;20.994;2022-10-26T10:12:18;12.70;99.90
17483;DHT22;8858;52.308;20.994;2022-10-26T10:14:58;12.70;99.90
17483;DHT22;8858;52.308;20.994;2022-10-26T10:17:26;12.70;99.90
17483;DHT22;8858;52.308;20.994;2022-10-26T10:20:06;12.80;99.90
17483;DHT22;8858;52.308;20.994;2022-10-26T10:22:52;12.80;99.90
17483;DHT22;8858;52.308;20.994;2022-10-26T10:25:31;12.80;99.90
17483;DHT22;8858;52.308;20.994;2022-10-26T10:28:00;12.80;99.90
17483;DHT22;8858;52.308;20.994;2022-10-26T10:30:31;12.80;99.90
17483;DHT22;8858;52.308;20.994;2022-10-26T10:33:06;12.80;99.90
17483;DHT22;8858;52.308;20.994;2022-10-26T10:35:37;13.00;99.90
17483;DHT22;8858;52.308;20.994;2022-10-26T10:38:40;13.10;99.90
17483;DHT22;8858;52.308;20.994;2022-10-26T10:41:27;13.20;99.90
17483;DHT22;8858;52.308;20.994;2022-10-26T10:44:05;13.20;99.90
17483;DHT22;8858;52.308;20.994;2022-10-26T10:46:35;13.20;99.90
17483;DHT22;8858;52.308;20.994;2022-10-26T10:49:05;13.10;99.90
17483;DHT22;8858;52.308;20.994;2022-10-26T10:51:38;13.10;99.90
17483;DHT22;8858;52.308;20.994;2022-10-26T10:54:21;13.10;99.90
17483;DHT22;8858;52.308;20.994;2022-10-26T10:56:51;13.20;99.90
17483;DHT22;8858;52.308;20.994;2022-10-26T10:59:40;13.20;99.90
17483;DHT22;8858;52.308;20.994;2022-10-26T11:02:30;13.30;99.90
17483;DHT22;8858;52.308;20.994;2022-10-26T11:05:21;13.40;99.90
17483;DHT22;8858;52.308;20.994;2022-10-26T11:07:57;13.40;99.90
17483;DHT22;8858;52.308;20.994;2022-10-26T11:10:34;13.50;99.90
17483;DHT22;8858;52.308;20.994;2022-10-26T11:13:09;13.50;99.90
17483;DHT22;8858;52.308;20.994;2022-10-26T11:15:41;13.50;99.90
17483;DHT22;8858;52.308;20.994;2022-10-26T11:18:14;13.60;99.90
17483;DHT22;8858;52.308;20.994;2022-10-26T11:20:52;13.60;99.90
17483;DHT22;8858;52.308;20.994;2022-10-26T11:23:33;13.60;99.90
17483;DHT22;8858;52.308;20.994;2022-10-26T11:26:11;13.70;99.90
17483;DHT22;8858;52.308;20.994;2022-10-26T11:28:48;13.60;99.90
17483;DHT22;8858;52.308;20.994;2022-10-26T11:31:22;13.50;99.90
17483;DHT22;8858;52.308;20.994;2022-10-26T11:34:09;13.50;99.90
17483;DHT22;8858;52.308;20.994;2022-10-26T11:36:41;13.50;99.90
17483;DHT22;8858;52.308;20.994;2022-10-26T11:39:16;13.40;99.90
17483;DHT22;8858;52.308;20.994;2022-10-26T11:41:54;13.50;99.90
17483;DHT22;8858;52.308;20.994;2022-10-26T11:44:28;13.40;99.90
17483;DHT22;8858;52.308;20.994;2022-10-26T11:47:02;13.50;99.90
17483;DHT22;8858;52.308;20.994;2022-10-26T11:49:38;13.60;99.90
17483;DHT22;8858;52.308;20.994;2022-10-26T11:52:18;13.60;99.90
17483;DHT22;8858;52.308;20.994;2022-10-26T11:54:52;13.60;99.90
17483;DHT22;8858;52.308;20.994;2022-10-26T11:57:23;13.70;99.90
17483;DHT22;8858;52.308;20.994;2022-10-26T11:59:56;13.80;99.90
17483;DHT22;8858;52.308;20.994;2022-10-26T12:02:25;13.80;99.90
17483;DHT22;8858;52.308;20.994;2022-10-26T12:04:58;13.80;99.90
17483;DHT22;8858;52.308;20.994;2022-10-26T12:07:31;13.80;99.90
17483;DHT22;8858;52.308;20.994;2022-10-26T12:10:02;13.90;99.90
17483;DHT22;8858;52.308;20.994;2022-10-26T12:12:37;14.10;99.90
17483;DHT22;8858;52.308;20.994;2022-10-26T12:15:17;14.20;99.90
17483;DHT22;8858;52.308;20.994;2022-10-26T12:18:12;14.20;99.90
17483;DHT22;8858;52.308;20.994;2022-10-26T12:20:55;14.10;99.90
17483;DHT22;8858;52.308;20.994;2022-10-26T12:23:30;14.20;99.90
17483;DHT22;8858;52.308;20.994;2022-10-26T12:26:38;14.10;99.90
17483;DHT22;8858;52.308;20.994;2022-10-26T12:29:33;14.30;99.90
17483;DHT22;8858;52.308;20.994;2022-10-26T12:35:35;14.20;99.90
17483;DHT22;8858;52.308;20.994;2022-10-26T12:41:18;14.00;99.90
17483;DHT22;8858;52.308;20.994;2022-10-26T12:43:48;14.00;99.90
17483;DHT22;8858;52.308;20.994;2022-10-26T12:46:42;14.00;99.90
17483;DHT22;8858;52.308;20.994;2022-10-26T12:52:42;13.90;99.90
17483;DHT22;8858;52.308;20.994;2022-10-26T12:58:28;13.80;99.90
17483;DHT22;8858;52.308;20.994;2022-10-26T13:01:21;14.00;99.90
17483;DHT22;8858;52.308;20.994;2022-10-26T13:04:03;13.80;99.90
17483;DHT22;8858;52.308;20.994;2022-10-26T13:06:44;13.80;99.90
17483;DHT22;8858;52.308;20.994;2022-10-26T13:09:22;13.70;99.90
17483;DHT22;8858;52.308;20.994;2022-10-26T13:11:53;13.70;99.90
17483;DHT22;8858;52.308;20.994;2022-10-26T13:14:24;13.70;99.90
17483;DHT22;8858;52.308;20.994;2022-10-26T13:16:54;13.80;99.90
17483;DHT22;8858;52.308;20.994;2022-10-26T13:19:26;13.80;99.90
17483;DHT22;8858;52.308;20.994;2022-10-26T13:21:59;13.80;99.90
17483;DHT22;8858;52.308;20.994;2022-10-26T13:24:30;13.80;99.90
17483;DHT22;8858;52.308;20.994;2022-10-26T13:27:22;13.80;99.90
17483;DHT22;8858;52.308;20.994;2022-10-26T13:30:20;13.70;99.90
17483;DHT22;8858;52.308;20.994;2022-10-26T13:33:07;13.80;99.90
17483;DHT22;8858;52.308;20.994;2022-10-26T13:35:42;13.80;99.90
17483;DHT22;8858;52.308;20.994;2022-10-26T13:38:11;13.90;99.90
17483;DHT22;8858;52.308;20.994;2022-10-26T13:40:40;13.90;99.90
17483;DHT22;8858;52.308;20.994;2022-10-26T13:43:15;14.00;99.90
17483;DHT22;8858;52.308;20.994;2022-10-26T13:45:52;14.00;99.90
17483;DHT22;8858;52.308;20.994;2022-10-26T13:48:28;14.00;99.90
17483;DHT22;8858;52.308;20.994;2022-10-26T13:51:10;14.10;99.90
17483;DHT22;8858;52.308;20.994;2022-10-26T13:53:44;14.00;99.90
17483;DHT22;8858;52.308;20.994;2022-10-26T13:56:24;14.00;99.90
17483;DHT22;8858;52.308;20.994;2022-10-26T13:58:59;14.10;99.90
17483;DHT22;8858;52.308;20.994;2022-10-26T14:01:29;14.20;99.90
17483;DHT22;8858;52.308;20.994;2022-10-26T14:03:58;14.20;99.90
17483;DHT22;8858;52.308;20.994;2022-10-26T14:06:36;14.20;99.90
17483;DHT22;8858;52.308;20.994;2022-10-26T14:09:10;14.10;99.90
17483;DHT22;8858;52.308;20.994;2022-10-26T14:11:44;14.10;99.90
17483;DHT22;8858;52.308;20.994;2022-10-26T14:14:18;14.10;99.90
17483;DHT22;8858;52.308;20.994;2022-10-26T14:17:18;14.10;99.90
17483;DHT22;8858;52.308;20.994;2022-10-26T14:19:47;14.00;99.90
17483;DHT22;8858;52.308;20.994;2022-10-26T14:22:20;13.90;99.90
17483;DHT22;8858;52.308;20.994;2022-10-26T14:24:54;13.90;99.90
17483;DHT22;8858;52.308;20.994;2022-10-26T14:27:24;13.80;99.90
17483;DHT22;8858;52.308;20.994;2022-10-26T14:29:54;13.90;99.90
17483;DHT22;8858;52.308;20.994;2022-10-26T14:32:45;13.90;99.90
17483;DHT22;8858;52.308;20.994;2022-10-26T14:35:15;13.90;99.90
17483;DHT22;8858;52.308;20.994;2022-10-26T14:37:48;13.90;99.90
17483;DHT22;8858;52.308;20.994;2022-10-26T14:40:41;13.80;99.90
17483;DHT22;8858;52.308;20.994;2022-10-26T14:43:17;13.70;99.90
17483;DHT22;8858;52.308;20.994;2022-10-26T14:45:49;13.80;99.90
17483;DHT22;8858;52.308;20.994;2022-10-26T14:48:23;13.80;99.90
17483;DHT22;8858;52.308;20.994;2022-10-26T14:51:00;13.80;99.90
17483;DHT22;8858;52.308;20.994;2022-10-26T14:53:35;13.80;99.90
17483;DHT22;8858;52.308;20.994;2022-10-26T14:56:15;13.60;99.90
17483;DHT22;8858;52.308;20.994;2022-10-26T14:58:44;13.50;99.90
17483;DHT22;8858;52.308;20.994;2022-10-26T15:01:14;13.50;99.90
17483;DHT22;8858;52.308;20.994;2022-10-26T15:03:43;13.40;99.90
17483;DHT22;8858;52.308;20.994;2022-10-26T15:06:36;13.30;99.90
17483;DHT22;8858;52.308;20.994;2022-10-26T15:09:31;13.30;99.90
17483;DHT22;8858;52.308;20.994;2022-10-26T15:12:00;13.20;99.90
17483;DHT22;8858;52.308;20.994;2022-10-26T15:14:31;13.10;99.90
17483;DHT22;8858;52.308;20.994;2022-10-26T15:17:02;13.10;99.90
17483;DHT22;8858;52.308;20.994;2022-10-26T15:19:30;13.10;99.90
17483;DHT22;8858;52.308;20.994;2022-10-26T15:22:01;13.10;99.90
17483;DHT22;8858;52.308;20.994;2022-10-26T15:24:34;13.10;99.90
17483;DHT22;8858;52.308;20.994;2022-10-26T15:27:12;13.10;99.90
17483;DHT22;8858;52.308;20.994;2022-10-26T15:29:44;13.00;99.90
17483;DHT22;8858;52.308;20.994;2022-10-26T15:32:26;13.00;99.90
17483;DHT22;8858;52.308;20.994;2022-10-26T15:35:26;13.00;99.90
17483;DHT22;8858;52.308;20.994;2022-10-26T15:37:56;13.00;99.90
17483;DHT22;8858;52.308;20.994;2022-10-26T15:40:30;13.00;99.90
17483;DHT22;8858;52.308;20.994;2022-10-26T15:43:00;12.90;99.90
17483;DHT22;8858;52.308;20.994;2022-10-26T15:45:30;12.90;99.90
17483;DHT22;8858;52.308;20.994;2022-10-26T15:48:16;12.90;99.90
17483;DHT22;8858;52.308;20.994;2022-10-26T15:50:46;12.90;99.90
17483;DHT22;8858;52.308;20.994;2022-10-26T15:53:17;12.90;99.90
17483;DHT22;8858;52.308;20.994;2022-10-26T15:55:50;12.90;99.90
17483;DHT22;8858;52.308;20.994;2022-10-26T15:58:19;12.80;99.90
17483;DHT22;8858;52.308;20.994;2022-10-26T16:00:51;12.80;99.90
17483;DHT22;8858;52.308;20.994;2022-10-26T16:03:21;12.70;99.90
17483;DHT22;8858;52.308;20.994;2022-10-26T16:05:54;12.70;99.90
17483;DHT22;8858;52.308;20.994;2022-10-26T16:08:25;12.60;99.90
17483;DHT22;8858;52.308;20.994;2022-10-26T16:10:56;12.60;99.90
17483;DHT22;8858;52.308;20.994;2022-10-26T16:13:27;12.50;99.90
17483;DHT22;8858;52.308;20.994;2022-10-26T16:15:56;12.50;99.90
17483;DHT22;8858;52.308;20.994;2022-10-26T16:18:26;12.50;99.90
17483;DHT22;8858;52.308;20.994;2022-10-26T16:20:54;12.40;99.90
17483;DHT22;8858;52.308;20.994;2022-10-26T16:23:23;12.40;99.90
17483;DHT22;8858;52.308;20.994;2022-10-26T16:25:51;12.30;99.90
17483;DHT22;8858;52.308;20.994;2022-10-26T16:28:20;12.30;99.90
17483;DHT22;8858;52.308;20.994;2022-10-26T16:30:49;12.30;99.90
17483;DHT22;8858;52.308;20.994;2022-10-26T16:33:17;12.20;99.90